Keller, Texas
Current Conditions -  °F | °C
As of 3:53 AM on Monday 22 Dec 2014 (Local Time) from KAFW Reporting Station
Scattered Clouds Scattered Clouds  
Wind Chill: 44°   Ceiling: Unl
Heat Index: 49°   Visibility: 10mi
Dew Point: 46°   Wind: 13mph
Humidity: 90%   Direction: 190°S
Pressure: 29.6"   Gusts: 16mph
Location:  32.93°N, 97.22°W
Report Text: KAFW 220953Z 19011G14KT 10SM SCT015 09/08 A2960 RMK AO2 SLP024 T00940078 $
Loading
Personal Weather Stations






























Interactive Weather Map New forecast layout! Learn more

10-Day Weather Forecast

Advertisements
Track Severe Weather on mobile